sensor_id;sensor_type;location;lat;lon;timestamp;P1;durP1;ratioP1;P2;durP2;ratioP2
11829;SDS011;5972;42.134;24.718;2024-01-15T00:00:01;61.27;;;35.20;;
11829;SDS011;5972;42.134;24.718;2024-01-15T00:02:28;64.87;;;37.57;;
11829;SDS011;5972;42.134;24.718;2024-01-15T00:04:55;64.23;;;37.40;;
11829;SDS011;5972;42.134;24.718;2024-01-15T00:07:22;73.23;;;38.47;;
11829;SDS011;5972;42.134;24.718;2024-01-15T00:09:49;78.00;;;40.43;;
11829;SDS011;5972;42.134;24.718;2024-01-15T00:12:16;69.33;;;39.40;;
11829;SDS011;5972;42.134;24.718;2024-01-15T00:14:43;69.03;;;39.37;;
11829;SDS011;5972;42.134;24.718;2024-01-15T00:17:12;65.63;;;37.17;;
11829;SDS011;5972;42.134;24.718;2024-01-15T00:19:39;75.13;;;40.80;;
11829;SDS011;5972;42.134;24.718;2024-01-15T00:22:06;73.17;;;40.10;;
11829;SDS011;5972;42.134;24.718;2024-01-15T00:24:33;71.17;;;41.40;;
11829;SDS011;5972;42.134;24.718;2024-01-15T00:27:00;66.97;;;39.23;;
11829;SDS011;5972;42.134;24.718;2024-01-15T00:29:27;67.70;;;39.37;;
11829;SDS011;5972;42.134;24.718;2024-01-15T00:31:53;66.47;;;37.53;;
11829;SDS011;5972;42.134;24.718;2024-01-15T00:34:22;64.80;;;38.43;;
11829;SDS011;5972;42.134;24.718;2024-01-15T00:36:49;75.20;;;43.27;;
11829;SDS011;5972;42.134;24.718;2024-01-15T00:39:16;74.77;;;41.73;;
11829;SDS011;5972;42.134;24.718;2024-01-15T00:41:43;67.20;;;36.73;;
11829;SDS011;5972;42.134;24.718;2024-01-15T00:44:10;68.03;;;39.33;;
11829;SDS011;5972;42.134;24.718;2024-01-15T00:46:42;65.30;;;35.97;;
11829;SDS011;5972;42.134;24.718;2024-01-15T00:49:10;64.90;;;36.63;;
11829;SDS011;5972;42.134;24.718;2024-01-15T00:51:38;56.43;;;31.93;;
11829;SDS011;5972;42.134;24.718;2024-01-15T00:54:06;52.27;;;28.93;;
11829;SDS011;5972;42.134;24.718;2024-01-15T00:56:33;55.63;;;32.07;;
11829;SDS011;5972;42.134;24.718;2024-01-15T00:59:00;53.47;;;29.83;;
11829;SDS011;5972;42.134;24.718;2024-01-15T01:01:27;51.40;;;31.03;;
11829;SDS011;5972;42.134;24.718;2024-01-15T01:03:54;50.53;;;29.57;;
11829;SDS011;5972;42.134;24.718;2024-01-15T01:06:21;49.70;;;28.97;;
11829;SDS011;5972;42.134;24.718;2024-01-15T01:08:50;48.20;;;28.73;;
11829;SDS011;5972;42.134;24.718;2024-01-15T01:11:17;55.43;;;30.60;;
11829;SDS011;5972;42.134;24.718;2024-01-15T01:13:44;47.53;;;29.67;;
11829;SDS011;5972;42.134;24.718;2024-01-15T01:16:11;42.07;;;25.87;;
11829;SDS011;5972;42.134;24.718;2024-01-15T01:18:38;49.97;;;30.10;;
11829;SDS011;5972;42.134;24.718;2024-01-15T01:21:05;49.37;;;30.27;;
11829;SDS011;5972;42.134;24.718;2024-01-15T01:23:32;54.87;;;30.50;;
11829;SDS011;5972;42.134;24.718;2024-01-15T01:26:00;52.43;;;31.47;;
11829;SDS011;5972;42.134;24.718;2024-01-15T01:28:27;53.30;;;31.63;;
11829;SDS011;5972;42.134;24.718;2024-01-15T01:30:54;51.90;;;31.67;;
11829;SDS011;5972;42.134;24.718;2024-01-15T01:33:21;54.53;;;31.70;;
11829;SDS011;5972;42.134;24.718;2024-01-15T01:35:48;52.40;;;28.67;;
11829;SDS011;5972;42.134;24.718;2024-01-15T01:38:15;62.00;;;34.87;;
11829;SDS011;5972;42.134;24.718;2024-01-15T01:40:42;54.23;;;32.07;;
11829;SDS011;5972;42.134;24.718;2024-01-15T01:43:11;53.73;;;31.20;;
11829;SDS011;5972;42.134;24.718;2024-01-15T01:45:38;51.00;;;30.90;;
11829;SDS011;5972;42.134;24.718;2024-01-15T01:48:05;50.47;;;29.50;;
11829;SDS011;5972;42.134;24.718;2024-01-15T01:50:32;49.33;;;30.70;;
11829;SDS011;5972;42.134;24.718;2024-01-15T01:53:00;51.27;;;28.70;;
11829;SDS011;5972;42.134;24.718;2024-01-15T01:55:29;55.50;;;31.03;;
11829;SDS011;5972;42.134;24.718;2024-01-15T01:57:58;52.00;;;30.47;;
11829;SDS011;5972;42.134;24.718;2024-01-15T02:00:28;52.87;;;29.80;;
11829;SDS011;5972;42.134;24.718;2024-01-15T02:02:56;48.50;;;29.20;;
11829;SDS011;5972;42.134;24.718;2024-01-15T02:05:23;46.53;;;29.57;;
11829;SDS011;5972;42.134;24.718;2024-01-15T02:07:51;46.60;;;28.73;;
11829;SDS011;5972;42.134;24.718;2024-01-15T02:10:18;50.37;;;28.97;;
11829;SDS011;5972;42.134;24.718;2024-01-15T02:12:45;55.80;;;29.90;;
11829;SDS011;5972;42.134;24.718;2024-01-15T02:15:13;44.03;;;27.60;;
11829;SDS011;5972;42.134;24.718;2024-01-15T02:18:00;48.90;;;29.63;;
11829;SDS011;5972;42.134;24.718;2024-01-15T02:20:29;48.37;;;27.90;;
11829;SDS011;5972;42.134;24.718;2024-01-15T02:23:04;46.90;;;26.63;;
11829;SDS011;5972;42.134;24.718;2024-01-15T02:25:35;47.73;;;27.40;;
11829;SDS011;5972;42.134;24.718;2024-01-15T02:28:03;47.63;;;28.70;;
11829;SDS011;5972;42.134;24.718;2024-01-15T02:30:31;53.60;;;29.57;;
11829;SDS011;5972;42.134;24.718;2024-01-15T02:33:01;50.27;;;28.57;;
11829;SDS011;5972;42.134;24.718;2024-01-15T02:35:28;48.87;;;29.03;;
11829;SDS011;5972;42.134;24.718;2024-01-15T02:37:55;51.83;;;29.00;;
11829;SDS011;5972;42.134;24.718;2024-01-15T02:40:23;50.53;;;29.60;;
11829;SDS011;5972;42.134;24.718;2024-01-15T02:42:50;52.10;;;30.90;;
11829;SDS011;5972;42.134;24.718;2024-01-15T02:45:17;53.10;;;30.47;;
11829;SDS011;5972;42.134;24.718;2024-01-15T02:47:44;49.50;;;30.10;;
11829;SDS011;5972;42.134;24.718;2024-01-15T02:50:11;54.77;;;30.03;;
11829;SDS011;5972;42.134;24.718;2024-01-15T02:52:38;52.50;;;30.17;;
11829;SDS011;5972;42.134;24.718;2024-01-15T02:55:05;53.80;;;30.83;;
11829;SDS011;5972;42.134;24.718;2024-01-15T02:57:34;51.20;;;28.57;;
11829;SDS011;5972;42.134;24.718;2024-01-15T03:00:01;54.57;;;30.67;;
11829;SDS011;5972;42.134;24.718;2024-01-15T03:02:29;50.20;;;29.67;;
11829;SDS011;5972;42.134;24.718;2024-01-15T03:04:56;50.43;;;29.63;;
11829;SDS011;5972;42.134;24.718;2024-01-15T03:07:23;48.17;;;29.13;;
11829;SDS011;5972;42.134;24.718;2024-01-15T03:09:50;53.80;;;28.53;;
11829;SDS011;5972;42.134;24.718;2024-01-15T03:12:17;46.90;;;27.90;;
11829;SDS011;5972;42.134;24.718;2024-01-15T03:14:46;46.60;;;28.00;;
11829;SDS011;5972;42.134;24.718;2024-01-15T03:17:13;54.03;;;29.10;;
11829;SDS011;5972;42.134;24.718;2024-01-15T03:19:40;49.17;;;29.80;;
11829;SDS011;5972;42.134;24.718;2024-01-15T03:22:07;48.03;;;27.90;;
11829;SDS011;5972;42.134;24.718;2024-01-15T03:24:34;52.63;;;29.20;;
11829;SDS011;5972;42.134;24.718;2024-01-15T03:27:01;47.17;;;27.57;;
11829;SDS011;5972;42.134;24.718;2024-01-15T03:29:27;50.10;;;27.67;;
11829;SDS011;5972;42.134;24.718;2024-01-15T03:31:56;46.43;;;26.40;;
11829;SDS011;5972;42.134;24.718;2024-01-15T03:34:23;48.30;;;28.20;;
11829;SDS011;5972;42.134;24.718;2024-01-15T03:36:50;44.70;;;26.30;;
11829;SDS011;5972;42.134;24.718;2024-01-15T03:39:17;46.93;;;26.90;;
11829;SDS011;5972;42.134;24.718;2024-01-15T03:41:44;48.40;;;27.20;;
11829;SDS011;5972;42.134;24.718;2024-01-15T03:44:11;45.77;;;25.87;;
11829;SDS011;5972;42.134;24.718;2024-01-15T03:46:38;44.67;;;24.73;;
11829;SDS011;5972;42.134;24.718;2024-01-15T03:49:06;50.10;;;26.70;;
11829;SDS011;5972;42.134;24.718;2024-01-15T03:51:33;47.13;;;26.43;;
11829;SDS011;5972;42.134;24.718;2024-01-15T03:54:00;49.93;;;28.03;;
11829;SDS011;5972;42.134;24.718;2024-01-15T03:56:27;43.67;;;25.47;;
11829;SDS011;5972;42.134;24.718;2024-01-15T03:58:54;45.03;;;26.53;;
11829;SDS011;5972;42.134;24.718;2024-01-15T04:01:21;44.40;;;26.90;;
11829;SDS011;5972;42.134;24.718;2024-01-15T04:03:48;43.97;;;28.10;;
11829;SDS011;5972;42.134;24.718;2024-01-15T04:06:17;50.17;;;29.40;;
11829;SDS011;5972;42.134;24.718;2024-01-15T04:08:45;49.60;;;28.17;;
11829;SDS011;5972;42.134;24.718;2024-01-15T04:11:12;46.70;;;28.07;;
11829;SDS011;5972;42.134;24.718;2024-01-15T04:13:39;51.77;;;29.03;;
11829;SDS011;5972;42.134;24.718;2024-01-15T04:16:06;48.03;;;28.03;;
11829;SDS011;5972;42.134;24.718;2024-01-15T04:18:33;50.37;;;29.23;;
11829;SDS011;5972;42.134;24.718;2024-01-15T04:21:00;51.33;;;29.23;;
11829;SDS011;5972;42.134;24.718;2024-01-15T04:23:31;44.67;;;28.43;;
11829;SDS011;5972;42.134;24.718;2024-01-15T04:25:58;48.90;;;26.40;;
11829;SDS011;5972;42.134;24.718;2024-01-15T04:28:25;45.40;;;26.00;;
11829;SDS011;5972;42.134;24.718;2024-01-15T04:30:52;46.70;;;26.73;;
11829;SDS011;5972;42.134;24.718;2024-01-15T04:33:20;47.37;;;26.53;;
11829;SDS011;5972;42.134;24.718;2024-01-15T04:35:47;50.37;;;27.83;;
11829;SDS011;5972;42.134;24.718;2024-01-15T04:38:14;47.47;;;27.77;;
11829;SDS011;5972;42.134;24.718;2024-01-15T04:40:42;45.80;;;27.77;;
11829;SDS011;5972;42.134;24.718;2024-01-15T04:43:12;47.40;;;27.83;;
11829;SDS011;5972;42.134;24.718;2024-01-15T04:45:42;49.43;;;27.93;;
11829;SDS011;5972;42.134;24.718;2024-01-15T04:48:09;45.50;;;27.30;;
11829;SDS011;5972;42.134;24.718;2024-01-15T04:50:36;48.30;;;25.70;;
11829;SDS011;5972;42.134;24.718;2024-01-15T04:53:03;45.57;;;25.57;;
11829;SDS011;5972;42.134;24.718;2024-01-15T04:55:30;45.20;;;26.93;;
11829;SDS011;5972;42.134;24.718;2024-01-15T04:57:59;44.10;;;26.60;;
11829;SDS011;5972;42.134;24.718;2024-01-15T05:00:25;50.83;;;25.20;;
11829;SDS011;5972;42.134;24.718;2024-01-15T05:02:55;43.43;;;25.53;;
11829;SDS011;5972;42.134;24.718;2024-01-15T05:05:23;39.00;;;23.33;;
11829;SDS011;5972;42.134;24.718;2024-01-15T05:07:50;40.00;;;23.50;;
11829;SDS011;5972;42.134;24.718;2024-01-15T05:10:17;36.30;;;21.93;;
11829;SDS011;5972;42.134;24.718;2024-01-15T05:12:44;44.77;;;24.13;;
11829;SDS011;5972;42.134;24.718;2024-01-15T05:15:12;41.30;;;24.03;;
11829;SDS011;5972;42.134;24.718;2024-01-15T05:17:39;50.13;;;26.40;;
11829;SDS011;5972;42.134;24.718;2024-01-15T05:20:06;44.60;;;25.87;;
11829;SDS011;5972;42.134;24.718;2024-01-15T05:22:34;50.80;;;25.87;;
11829;SDS011;5972;42.134;24.718;2024-01-15T05:25:01;38.57;;;23.77;;
11829;SDS011;5972;42.134;24.718;2024-01-15T05:27:28;42.70;;;24.83;;
11829;SDS011;5972;42.134;24.718;2024-01-15T05:29:55;39.43;;;23.60;;
11829;SDS011;5972;42.134;24.718;2024-01-15T05:32:25;42.87;;;23.93;;
11829;SDS011;5972;42.134;24.718;2024-01-15T05:34:51;40.17;;;24.60;;
11829;SDS011;5972;42.134;24.718;2024-01-15T05:37:18;48.63;;;25.47;;
11829;SDS011;5972;42.134;24.718;2024-01-15T05:39:45;45.60;;;24.70;;
11829;SDS011;5972;42.134;24.718;2024-01-15T05:42:12;49.43;;;24.43;;
11829;SDS011;5972;42.134;24.718;2024-01-15T05:44:39;42.73;;;24.10;;
11829;SDS011;5972;42.134;24.718;2024-01-15T05:47:07;36.83;;;22.10;;
11829;SDS011;5972;42.134;24.718;2024-01-15T05:49:36;37.73;;;22.33;;
11829;SDS011;5972;42.134;24.718;2024-01-15T05:52:04;40.40;;;22.50;;
11829;SDS011;5972;42.134;24.718;2024-01-15T05:54:31;43.97;;;21.10;;
11829;SDS011;5972;42.134;24.718;2024-01-15T05:56:58;32.73;;;19.33;;
11829;SDS011;5972;42.134;24.718;2024-01-15T05:59:25;34.60;;;19.10;;
11829;SDS011;5972;42.134;24.718;2024-01-15T06:01:54;35.27;;;19.40;;
11829;SDS011;5972;42.134;24.718;2024-01-15T06:04:21;36.47;;;21.80;;
11829;SDS011;5972;42.134;24.718;2024-01-15T06:06:49;40.27;;;20.50;;
11829;SDS011;5972;42.134;24.718;2024-01-15T06:09:16;38.20;;;21.33;;
11829;SDS011;5972;42.134;24.718;2024-01-15T06:11:43;40.17;;;22.00;;
11829;SDS011;5972;42.134;24.718;2024-01-15T06:14:10;35.03;;;21.77;;
11829;SDS011;5972;42.134;24.718;2024-01-15T06:16:37;37.10;;;22.23;;
11829;SDS011;5972;42.134;24.718;2024-01-15T06:19:04;40.83;;;23.30;;
11829;SDS011;5972;42.134;24.718;2024-01-15T06:21:31;42.50;;;23.53;;
11829;SDS011;5972;42.134;24.718;2024-01-15T06:23:59;35.60;;;20.77;;
11829;SDS011;5972;42.134;24.718;2024-01-15T06:26:27;38.63;;;22.30;;
11829;SDS011;5972;42.134;24.718;2024-01-15T06:28:54;42.77;;;23.83;;
11829;SDS011;5972;42.134;24.718;2024-01-15T06:31:21;41.87;;;24.23;;
11829;SDS011;5972;42.134;24.718;2024-01-15T06:33:48;39.80;;;22.10;;
11829;SDS011;5972;42.134;24.718;2024-01-15T06:36:16;40.20;;;23.53;;
11829;SDS011;5972;42.134;24.718;2024-01-15T06:38:43;32.80;;;21.17;;
11829;SDS011;5972;42.134;24.718;2024-01-15T06:41:11;37.37;;;22.37;;
11829;SDS011;5972;42.134;24.718;2024-01-15T06:43:39;39.57;;;23.17;;
11829;SDS011;5972;42.134;24.718;2024-01-15T06:46:13;43.67;;;23.40;;
11829;SDS011;5972;42.134;24.718;2024-01-15T06:48:54;42.43;;;24.50;;
11829;SDS011;5972;42.134;24.718;2024-01-15T06:51:21;43.77;;;26.43;;
11829;SDS011;5972;42.134;24.718;2024-01-15T06:53:48;40.60;;;24.43;;
11829;SDS011;5972;42.134;24.718;2024-01-15T06:56:16;43.33;;;25.17;;
11829;SDS011;5972;42.134;24.718;2024-01-15T06:58:43;40.57;;;24.07;;
11829;SDS011;5972;42.134;24.718;2024-01-15T07:01:10;43.00;;;24.13;;
11829;SDS011;5972;42.134;24.718;2024-01-15T07:03:38;44.37;;;25.17;;
11829;SDS011;5972;42.134;24.718;2024-01-15T07:06:05;42.47;;;26.00;;
11829;SDS011;5972;42.134;24.718;2024-01-15T07:08:32;61.00;;;38.23;;
11829;SDS011;5972;42.134;24.718;2024-01-15T07:10:59;66.53;;;38.00;;
11829;SDS011;5972;42.134;24.718;2024-01-15T07:13:31;58.43;;;35.70;;
11829;SDS011;5972;42.134;24.718;2024-01-15T07:15:58;58.07;;;34.83;;
11829;SDS011;5972;42.134;24.718;2024-01-15T07:18:25;59.83;;;35.00;;
11829;SDS011;5972;42.134;24.718;2024-01-15T07:20:52;60.00;;;36.33;;
11829;SDS011;5972;42.134;24.718;2024-01-15T07:23:19;66.93;;;36.97;;
11829;SDS011;5972;42.134;24.718;2024-01-15T07:25:46;67.20;;;37.23;;
11829;SDS011;5972;42.134;24.718;2024-01-15T07:28:13;62.30;;;35.43;;
11829;SDS011;5972;42.134;24.718;2024-01-15T07:30:42;65.60;;;37.50;;
11829;SDS011;5972;42.134;24.718;2024-01-15T07:33:10;69.53;;;37.03;;
11829;SDS011;5972;42.134;24.718;2024-01-15T07:35:37;56.20;;;34.43;;
11829;SDS011;5972;42.134;24.718;2024-01-15T07:38:04;64.63;;;34.83;;
11829;SDS011;5972;42.134;24.718;2024-01-15T07:40:31;68.43;;;37.60;;
11829;SDS011;5972;42.134;24.718;2024-01-15T07:42:58;67.17;;;37.33;;
11829;SDS011;5972;42.134;24.718;2024-01-15T07:45:25;60.07;;;33.57;;
11829;SDS011;5972;42.134;24.718;2024-01-15T07:47:54;53.37;;;32.93;;
11829;SDS011;5972;42.134;24.718;2024-01-15T07:50:21;61.90;;;35.23;;
11829;SDS011;5972;42.134;24.718;2024-01-15T07:52:48;59.60;;;36.27;;
11829;SDS011;5972;42.134;24.718;2024-01-15T07:55:15;57.50;;;36.33;;
11829;SDS011;5972;42.134;24.718;2024-01-15T07:57:42;66.33;;;41.20;;
11829;SDS011;5972;42.134;24.718;2024-01-15T08:00:09;68.70;;;39.50;;
11829;SDS011;5972;42.134;24.718;2024-01-15T08:02:37;63.40;;;40.23;;
11829;SDS011;5972;42.134;24.718;2024-01-15T08:05:05;70.63;;;41.03;;
11829;SDS011;5972;42.134;24.718;2024-01-15T08:07:32;60.13;;;36.10;;
11829;SDS011;5972;42.134;24.718;2024-01-15T08:09:59;57.83;;;33.70;;
11829;SDS011;5972;42.134;24.718;2024-01-15T08:12:26;51.20;;;31.87;;
11829;SDS011;5972;42.134;24.718;2024-01-15T08:14:53;45.87;;;29.60;;
11829;SDS011;5972;42.134;24.718;2024-01-15T08:17:20;40.30;;;27.47;;
11829;SDS011;5972;42.134;24.718;2024-01-15T08:19:48;34.73;;;23.33;;
11829;SDS011;5972;42.134;24.718;2024-01-15T08:22:18;34.37;;;23.83;;
11829;SDS011;5972;42.134;24.718;2024-01-15T08:24:56;33.67;;;23.30;;
11829;SDS011;5972;42.134;24.718;2024-01-15T08:27:23;34.90;;;24.50;;
11829;SDS011;5972;42.134;24.718;2024-01-15T08:29:50;35.77;;;24.83;;
11829;SDS011;5972;42.134;24.718;2024-01-15T08:32:17;33.20;;;22.43;;
11829;SDS011;5972;42.134;24.718;2024-01-15T08:34:44;30.53;;;21.43;;
11829;SDS011;5972;42.134;24.718;2024-01-15T08:37:12;31.97;;;21.77;;
11829;SDS011;5972;42.134;24.718;2024-01-15T08:39:41;31.07;;;20.23;;
11829;SDS011;5972;42.134;24.718;2024-01-15T08:42:08;28.80;;;20.60;;
11829;SDS011;5972;42.134;24.718;2024-01-15T08:44:36;35.30;;;21.83;;
11829;SDS011;5972;42.134;24.718;2024-01-15T08:47:10;33.80;;;22.33;;
11829;SDS011;5972;42.134;24.718;2024-01-15T08:49:37;31.70;;;21.27;;
11829;SDS011;5972;42.134;24.718;2024-01-15T08:52:05;31.97;;;20.33;;
11829;SDS011;5972;42.134;24.718;2024-01-15T08:54:32;31.67;;;20.97;;
11829;SDS011;5972;42.134;24.718;2024-01-15T08:57:01;33.37;;;20.50;;
11829;SDS011;5972;42.134;24.718;2024-01-15T08:59:28;33.00;;;21.33;;
11829;SDS011;5972;42.134;24.718;2024-01-15T09:01:55;29.37;;;21.37;;
11829;SDS011;5972;42.134;24.718;2024-01-15T09:04:23;37.93;;;23.57;;
11829;SDS011;5972;42.134;24.718;2024-01-15T09:06:50;37.57;;;23.80;;
11829;SDS011;5972;42.134;24.718;2024-01-15T09:09:17;39.13;;;23.13;;
11829;SDS011;5972;42.134;24.718;2024-01-15T09:11:44;37.57;;;23.43;;
11829;SDS011;5972;42.134;24.718;2024-01-15T09:14:13;37.10;;;22.73;;
11829;SDS011;5972;42.134;24.718;2024-01-15T09:16:40;44.77;;;24.63;;
11829;SDS011;5972;42.134;24.718;2024-01-15T09:19:07;41.63;;;24.40;;
11829;SDS011;5972;42.134;24.718;2024-01-15T09:21:34;34.60;;;22.83;;
11829;SDS011;5972;42.134;24.718;2024-01-15T09:24:01;38.87;;;24.27;;
11829;SDS011;5972;42.134;24.718;2024-01-15T09:26:28;31.70;;;21.37;;
11829;SDS011;5972;42.134;24.718;2024-01-15T09:28:55;32.80;;;21.90;;
11829;SDS011;5972;42.134;24.718;2024-01-15T09:31:24;29.90;;;20.40;;
11829;SDS011;5972;42.134;24.718;2024-01-15T09:33:52;29.03;;;20.43;;
11829;SDS011;5972;42.134;24.718;2024-01-15T09:36:21;30.53;;;20.17;;
11829;SDS011;5972;42.134;24.718;2024-01-15T09:38:48;31.87;;;20.87;;
11829;SDS011;5972;42.134;24.718;2024-01-15T09:41:16;34.83;;;21.50;;
11829;SDS011;5972;42.134;24.718;2024-01-15T09:43:43;31.90;;;22.00;;
11829;SDS011;5972;42.134;24.718;2024-01-15T09:46:11;31.47;;;21.27;;
11829;SDS011;5972;42.134;24.718;2024-01-15T09:48:39;34.70;;;22.10;;
11829;SDS011;5972;42.134;24.718;2024-01-15T09:51:07;39.83;;;22.63;;
11829;SDS011;5972;42.134;24.718;2024-01-15T09:53:41;33.93;;;22.23;;
11829;SDS011;5972;42.134;24.718;2024-01-15T09:56:10;31.17;;;20.80;;
11829;SDS011;5972;42.134;24.718;2024-01-15T09:58:37;31.93;;;21.50;;
11829;SDS011;5972;42.134;24.718;2024-01-15T10:01:05;32.67;;;21.80;;
11829;SDS011;5972;42.134;24.718;2024-01-15T10:03:32;31.27;;;21.47;;
11829;SDS011;5972;42.134;24.718;2024-01-15T10:06:01;35.83;;;22.87;;
11829;SDS011;5972;42.134;24.718;2024-01-15T10:08:28;31.87;;;21.77;;
11829;SDS011;5972;42.134;24.718;2024-01-15T10:10:56;34.70;;;23.57;;
11829;SDS011;5972;42.134;24.718;2024-01-15T10:13:23;33.97;;;23.50;;
11829;SDS011;5972;42.134;24.718;2024-01-15T10:15:50;34.50;;;24.83;;
11829;SDS011;5972;42.134;24.718;2024-01-15T10:18:17;38.77;;;26.10;;
11829;SDS011;5972;42.134;24.718;2024-01-15T10:20:44;36.93;;;25.50;;
11829;SDS011;5972;42.134;24.718;2024-01-15T10:23:13;36.33;;;25.43;;
11829;SDS011;5972;42.134;24.718;2024-01-15T10:25:41;36.60;;;25.90;;
11829;SDS011;5972;42.134;24.718;2024-01-15T10:28:08;39.37;;;26.60;;
11829;SDS011;5972;42.134;24.718;2024-01-15T10:30:35;35.47;;;25.70;;
11829;SDS011;5972;42.134;24.718;2024-01-15T10:33:03;43.20;;;26.27;;
11829;SDS011;5972;42.134;24.718;2024-01-15T10:35:31;40.97;;;24.73;;
11829;SDS011;5972;42.134;24.718;2024-01-15T10:37:59;42.20;;;25.57;;
11829;SDS011;5972;42.134;24.718;2024-01-15T10:40:27;45.00;;;27.50;;
11829;SDS011;5972;42.134;24.718;2024-01-15T10:42:55;40.13;;;27.67;;
11829;SDS011;5972;42.134;24.718;2024-01-15T10:45:22;40.20;;;27.08;;
11829;SDS011;5972;42.134;24.718;2024-01-15T10:47:49;39.75;;;26.77;;
11829;SDS011;5972;42.134;24.718;2024-01-15T10:50:16;40.15;;;25.70;;
11829;SDS011;5972;42.134;24.718;2024-01-15T10:52:44;36.92;;;27.55;;
11829;SDS011;5972;42.134;24.718;2024-01-15T10:55:11;39.92;;;26.95;;
11829;SDS011;5972;42.134;24.718;2024-01-15T10:57:39;40.55;;;27.90;;
11829;SDS011;5972;42.134;24.718;2024-01-15T11:00:07;52.67;;;28.77;;
11829;SDS011;5972;42.134;24.718;2024-01-15T11:02:40;39.22;;;27.75;;
11829;SDS011;5972;42.134;24.718;2024-01-15T11:05:08;37.92;;;27.02;;
11829;SDS011;5972;42.134;24.718;2024-01-15T11:07:34;34.65;;;25.23;;
11829;SDS011;5972;42.134;24.718;2024-01-15T11:10:03;38.70;;;26.65;;
11829;SDS011;5972;42.134;24.718;2024-01-15T11:12:30;37.22;;;25.00;;
11829;SDS011;5972;42.134;24.718;2024-01-15T11:15:02;39.00;;;25.58;;
11829;SDS011;5972;42.134;24.718;2024-01-15T11:20:28;36.08;;;22.35;;
11829;SDS011;5972;42.134;24.718;2024-01-15T11:22:56;33.10;;;24.42;;
11829;SDS011;5972;42.134;24.718;2024-01-15T11:25:24;39.33;;;27.05;;
11829;SDS011;5972;42.134;24.718;2024-01-15T11:28:03;31.13;;;20.48;;
11829;SDS011;5972;42.134;24.718;2024-01-15T11:30:32;36.50;;;22.65;;
11829;SDS011;5972;42.134;24.718;2024-01-15T11:33:02;28.70;;;21.10;;
11829;SDS011;5972;42.134;24.718;2024-01-15T11:38:26;37.38;;;22.60;;
11829;SDS011;5972;42.134;24.718;2024-01-15T11:40:53;32.45;;;22.20;;
11829;SDS011;5972;42.134;24.718;2024-01-15T11:43:20;35.42;;;22.40;;
11829;SDS011;5972;42.134;24.718;2024-01-15T11:45:51;33.38;;;22.30;;
11829;SDS011;5972;42.134;24.718;2024-01-15T11:48:19;43.30;;;23.02;;
11829;SDS011;5972;42.134;24.718;2024-01-15T11:50:49;43.58;;;24.15;;
11829;SDS011;5972;42.134;24.718;2024-01-15T11:53:18;36.53;;;21.90;;
11829;SDS011;5972;42.134;24.718;2024-01-15T11:56:01;34.63;;;21.27;;
11829;SDS011;5972;42.134;24.718;2024-01-15T11:58:29;32.07;;;20.47;;
11829;SDS011;5972;42.134;24.718;2024-01-15T12:00:58;35.80;;;21.03;;
11829;SDS011;5972;42.134;24.718;2024-01-15T12:03:25;27.57;;;19.07;;
11829;SDS011;5972;42.134;24.718;2024-01-15T12:05:52;30.93;;;19.37;;
11829;SDS011;5972;42.134;24.718;2024-01-15T12:08:22;39.93;;;23.77;;
11829;SDS011;5972;42.134;24.718;2024-01-15T12:10:49;43.83;;;24.50;;
11829;SDS011;5972;42.134;24.718;2024-01-15T12:13:16;38.37;;;22.00;;
11829;SDS011;5972;42.134;24.718;2024-01-15T12:15:44;32.93;;;19.80;;
11829;SDS011;5972;42.134;24.718;2024-01-15T12:18:15;31.73;;;19.67;;
11829;SDS011;5972;42.134;24.718;2024-01-15T12:20:45;38.90;;;21.27;;
11829;SDS011;5972;42.134;24.718;2024-01-15T12:23:13;31.70;;;19.57;;
11829;SDS011;5972;42.134;24.718;2024-01-15T12:25:40;40.07;;;20.43;;
11829;SDS011;5972;42.134;24.718;2024-01-15T12:28:08;33.07;;;20.70;;
11829;SDS011;5972;42.134;24.718;2024-01-15T12:30:35;32.10;;;20.83;;
11829;SDS011;5972;42.134;24.718;2024-01-15T12:33:03;33.90;;;21.10;;
11829;SDS011;5972;42.134;24.718;2024-01-15T12:35:32;29.80;;;20.07;;
11829;SDS011;5972;42.134;24.718;2024-01-15T12:38:00;32.90;;;21.00;;
11829;SDS011;5972;42.134;24.718;2024-01-15T12:40:28;39.00;;;22.00;;
11829;SDS011;5972;42.134;24.718;2024-01-15T12:42:57;29.87;;;21.23;;
11829;SDS011;5972;42.134;24.718;2024-01-15T12:45:24;40.97;;;23.60;;
11829;SDS011;5972;42.134;24.718;2024-01-15T12:47:52;42.67;;;26.63;;
11829;SDS011;5972;42.134;24.718;2024-01-15T12:50:23;41.73;;;26.87;;
11829;SDS011;5972;42.134;24.718;2024-01-15T12:52:52;53.83;;;27.57;;
11829;SDS011;5972;42.134;24.718;2024-01-15T12:55:19;46.97;;;25.13;;
11829;SDS011;5972;42.134;24.718;2024-01-15T12:57:46;45.17;;;26.60;;
11829;SDS011;5972;42.134;24.718;2024-01-15T13:00:15;47.07;;;26.97;;
11829;SDS011;5972;42.134;24.718;2024-01-15T13:02:42;51.57;;;27.17;;
11829;SDS011;5972;42.134;24.718;2024-01-15T13:05:09;50.03;;;26.17;;
11829;SDS011;5972;42.134;24.718;2024-01-15T13:07:37;48.33;;;27.93;;
11829;SDS011;5972;42.134;24.718;2024-01-15T13:10:06;50.93;;;29.03;;
11829;SDS011;5972;42.134;24.718;2024-01-15T13:12:34;46.50;;;27.50;;
11829;SDS011;5972;42.134;24.718;2024-01-15T13:15:01;43.43;;;26.50;;
11829;SDS011;5972;42.134;24.718;2024-01-15T13:17:29;50.60;;;29.40;;
11829;SDS011;5972;42.134;24.718;2024-01-15T13:19:57;53.47;;;31.50;;
11829;SDS011;5972;42.134;24.718;2024-01-15T13:22:24;54.97;;;33.43;;
11829;SDS011;5972;42.134;24.718;2024-01-15T13:24:55;53.20;;;33.07;;
11829;SDS011;5972;42.134;24.718;2024-01-15T13:27:23;49.37;;;33.17;;
11829;SDS011;5972;42.134;24.718;2024-01-15T13:29:50;56.97;;;33.27;;
11829;SDS011;5972;42.134;24.718;2024-01-15T13:32:21;56.60;;;35.20;;
11829;SDS011;5972;42.134;24.718;2024-01-15T13:34:51;63.57;;;33.87;;
11829;SDS011;5972;42.134;24.718;2024-01-15T13:37:18;52.43;;;34.47;;
11829;SDS011;5972;42.134;24.718;2024-01-15T13:39:45;62.87;;;35.07;;
11829;SDS011;5972;42.134;24.718;2024-01-15T13:42:12;53.80;;;34.87;;
11829;SDS011;5972;42.134;24.718;2024-01-15T13:44:42;62.80;;;35.73;;
11829;SDS011;5972;42.134;24.718;2024-01-15T13:47:09;57.53;;;34.30;;
11829;SDS011;5972;42.134;24.718;2024-01-15T13:49:36;54.37;;;34.37;;
11829;SDS011;5972;42.134;24.718;2024-01-15T13:52:03;58.97;;;34.17;;
11829;SDS011;5972;42.134;24.718;2024-01-15T13:54:30;58.40;;;34.33;;
11829;SDS011;5972;42.134;24.718;2024-01-15T13:56:57;63.17;;;35.40;;
11829;SDS011;5972;42.134;24.718;2024-01-15T13:59:24;58.17;;;33.67;;
11829;SDS011;5972;42.134;24.718;2024-01-15T14:01:53;55.07;;;34.13;;
11829;SDS011;5972;42.134;24.718;2024-01-15T14:04:20;62.70;;;35.80;;
11829;SDS011;5972;42.134;24.718;2024-01-15T14:06:47;73.70;;;37.53;;
11829;SDS011;5972;42.134;24.718;2024-01-15T14:09:14;68.73;;;36.90;;
11829;SDS011;5972;42.134;24.718;2024-01-15T14:11:41;62.87;;;36.20;;
11829;SDS011;5972;42.134;24.718;2024-01-15T14:14:08;63.37;;;35.03;;
11829;SDS011;5972;42.134;24.718;2024-01-15T14:16:35;53.03;;;34.57;;
11829;SDS011;5972;42.134;24.718;2024-01-15T14:19:03;51.43;;;33.23;;
11829;SDS011;5972;42.134;24.718;2024-01-15T14:21:40;54.17;;;33.57;;
11829;SDS011;5972;42.134;24.718;2024-01-15T14:24:07;59.87;;;35.63;;
11829;SDS011;5972;42.134;24.718;2024-01-15T14:26:34;53.77;;;33.20;;
11829;SDS011;5972;42.134;24.718;2024-01-15T14:29:01;56.40;;;34.33;;